• Join FlightAware (Why Join?)
  • Login
  • US Flag 
10:47PM EDT


 

Airport Tracker/Info


-or-


 

Live Flight TrackerFlight Track Log ✈ N682DB ✈ 03-May-2012 ✈ KMMU - KSAV

Flight Track Log - Related Links

Times and Time Zones

All times are in EDT time to prevent confusion due to time zone crossing. See the N682DB flight status page for this flight to view local times or setup timezone preferences in your user account.

Time Position Orientation Groundspeed Altitude Reporting Facility
EDT Latitude Longitude Course Direction KTS MPH feet Rate Location/Type
04:41PM 40.7833 -74.4333 169° South 187 215 1,600  Level New York TRACON
04:42PM 40.7167 -74.4167 150° Southeast 268 308 3,400 2,100 Climbing New York TRACON
04:43PM 40.6500 -74.3667 90° East 264 304 5,800 1,260 Climbing New York TRACON
04:44PM 40.6500 -74.2667 153° Southeast 260 299 6,000 60 Climbing New York TRACON
04:45PM 40.6000 -74.2333 207° Southwest 269 310 6,000  Level New York TRACON
04:46PM 40.5500 -74.2667 163° South 261 300 6,100  Climbing New York TRACON
04:47PM 40.4667 -74.2333 159° South 289 333 6,000 -60 Descending New York TRACON
04:48PM 40.4000 -74.2000 177° South 264 304 6,000 480 Level New York TRACON
04:49PM 40.3494 -74.1969 188° South 281 323 6,800 2,580 Climbing New York Center
04:50PM 40.2761 -74.2097 187° South 296 341 10,300 3,960 Climbing New York Center
04:51PM 40.1839 -74.2242 187° South 296 341 14,800 3,120 Climbing New York Center
04:52PM 40.0939 -74.2386 193° South 307 353 16,600 1,440 Climbing New York Center
04:53PM 39.9908 -74.2686 217° Southwest 361 415 17,800 1,740 Climbing New York Center
04:55PM 39.7956 -74.4600 226° Southwest 407 468 22,500 2,100 Climbing Washington Center
04:56PM 39.7194 -74.5636 226° Southwest 407 468 24,900 2,280 Climbing Washington Center
04:57PM 39.6411 -74.6672 225° Southwest 407 468 27,200 2,280 Climbing Washington Center
04:58PM 39.5628 -74.7678 225° Southwest 407 468 29,500 1,920 Climbing Washington Center
04:59PM 39.4758 -74.8817 226° Southwest 402 463 31,000 1,740 Climbing Washington Center
05:00PM 39.3994 -74.9847 225° Southwest 407 468 33,100 1,860 Climbing Washington Center
05:01PM 39.3208 -75.0872 206° Southwest 402 463 34,800 1,440 Climbing Washington Center
05:02PM 39.2250 -75.1469 198° South 395 455 36,000 600 Climbing Washington Center
05:03PM 39.1106 -75.1956 196° South 405 466 36,000  Level Washington Center
05:04PM 38.9942 -75.2392 198° South 424 488 36,000  Level Washington Center
05:05PM 38.8733 -75.2903 199° South 446 513 36,000  Level Washington Center
05:06PM 38.7544 -75.3414 197° South 446 513 36,000  Level Washington Center
05:07PM 38.6378 -75.3869 199° South 446 513 36,000  Level Washington Center
05:08PM 38.5211 -75.4378 197° South 446 513 36,000  Level Washington Center
05:09PM 38.4044 -75.4831 207° Southwest 441 507 36,000  Level Washington Center
05:10PM 38.2961 -75.5547 216° Southwest 441 507 36,000  Level Washington Center
05:11PM 38.2003 -75.6444 216° Southwest 431 496 36,000  Level Washington Center
05:12PM 38.1042 -75.7342 216° Southwest 437 503 36,000  Level Washington Center
05:13PM 38.0081 -75.8236 217° Southwest 437 503 36,000  Level Washington Center
05:14PM 37.9100 -75.9181 216° Southwest 437 503 36,000  Level Washington Center
05:15PM 37.8117 -76.0072 219° Southwest 437 503 36,000  Level Washington Center
05:16PM 37.7278 -76.0933 214° Southwest 437 503 36,000  Level Washington Center
05:17PM 37.6169 -76.1894 216° Southwest 442 509 36,000  Level Washington Center
05:18PM 37.5183 -76.2806 216° Southwest 442 509 36,000  Level Washington Center
05:19PM 37.4197 -76.3711 216° Southwest 442 509 36,000  Level Washington Center
05:20PM 37.3192 -76.4614 216° Southwest 442 509 36,000  Level Washington Center
05:21PM 37.2183 -76.5542 216° Southwest 447 514 36,000  Level Washington Center
05:22PM 37.1172 -76.6467 216° Southwest 457 526 36,000  Level Washington Center
05:23PM 37.0186 -76.7364 215° Southwest 457 526 36,000  Level Washington Center
05:24PM 36.9175 -76.8258 217° Southwest 452 520 36,000  Level Washington Center
05:25PM 36.8183 -76.9178 216° Southwest 452 520 36,000  Level Washington Center
05:26PM 36.7194 -77.0067 217° Southwest 452 520 36,000  Level Washington Center
05:27PM 36.6222 -77.0981 218° Southwest 452 520 36,000  Level Washington Center
05:28PM 36.5250 -77.1919 217° Southwest 452 520 36,000  Level Washington Center
05:29PM 36.4278 -77.2828 217° Southwest 446 513 36,000  Level Washington Center
05:30PM 36.3306 -77.3736 218° Southwest 441 507 36,000  Level Washington Center
05:31PM 36.2375 -77.4642 218° Southwest 441 507 36,000  Level Washington Center
05:32PM 36.1506 -77.5469 216° Southwest 441 507 36,000  Level Washington Center
05:33PM 36.0511 -77.6369 216° Southwest 441 507 36,000  Level Washington Center
05:34PM 35.9514 -77.7267 212° Southwest 446 513 36,000  Level Washington Center
05:35PM 35.8497 -77.8061 212° Southwest 441 507 36,000  Level Washington Center
05:36PM 35.7417 -77.8900 213° Southwest 447 514 36,000  Level Washington Center
05:37PM 35.6381 -77.9714 212° Southwest 447 514 36,000  Level Washington Center
05:38PM 35.5214 -78.0597 212° Southwest 447 514 36,000  Level Washington Center
05:39PM 35.4153 -78.1406 213° Southwest 452 520 36,000  Level Washington Center
05:40PM 35.3114 -78.2239 211° Southwest 452 520 36,000  Level Washington Center
05:41PM 35.2031 -78.3042 213° Southwest 452 520 36,000  Level Washington Center
05:42PM 35.0967 -78.3894 213° Southwest 457 526 36,000  Level Washington Center
05:43PM 35.0033 -78.4622 212° Southwest 457 526 36,000  Level Washington Center
05:44PM 34.8950 -78.5447 213° Southwest 463 533 36,000  Level Washington Center
05:45PM 34.7819 -78.6342 211° Southwest 453 521 36,000  Level Washington Center
05:47PM 34.5931 -78.7717 213° Southwest 477 549 36,000  Level Jacksonville Center
05:48PM 34.5017 -78.8439 222° Southwest 458 527 36,000  Level Jacksonville Center
05:49PM 34.4089 -78.9464 221° Southwest 453 521 36,000  Level Jacksonville Center
05:50PM 34.3158 -79.0436 220° Southwest 453 521 36,000  Level Jacksonville Center
05:51PM 34.2228 -79.1381 221° Southwest 448 516 36,000 -120 Level Jacksonville Center
05:52PM 34.1197 -79.2481 220° Southwest 448 516 35,800 -540 Descending Jacksonville Center
05:53PM 34.0264 -79.3419 220° Southwest 448 516 35,000 -780 Descending Jacksonville Center
05:54PM 33.9553 -79.4150 218° Southwest 438 504 34,300 -1,080 Descending Jacksonville Center
05:55PM 33.8597 -79.5039 221° Southwest 423 487 32,900 -1,200 Descending Jacksonville Center
05:56PM 33.7706 -79.5972 220° Southwest 418 481 31,900 -780 Descending Jacksonville Center
05:57PM 33.6747 -79.6931 220° Southwest 433 498 31,400 -420 Descending Jacksonville Center
05:58PM 33.5669 -79.8017 220° Southwest 454 522 31,100 -240 Descending Jacksonville Center
05:59PM 33.4711 -79.8972 220° Southwest 454 522 31,000 -480 Descending Jacksonville Center
06:00PM 33.3753 -79.9950 220° Southwest 459 528 30,200 -1,680 Descending Jacksonville Center
06:01PM 33.2775 -80.0925 220° Southwest 464 534 27,700 -2,400 Descending Jacksonville Center
06:02PM 33.1794 -80.1925 221° Southwest 464 534 25,400 -1,860 Descending Jacksonville Center
06:03PM 33.0875 -80.2869 218° Southwest 463 533 24,000 -1,680 Descending Jacksonville Center
06:04PM 33.0014 -80.3661 220° Southwest 428 493 22,100 -2,400 Descending Jacksonville Center
06:05PM 32.9214 -80.4450 220° Southwest 402 463 19,300 -2,340 Descending Jacksonville Center
06:06PM 32.8478 -80.5189 220° Southwest 379 436 17,500 -1,980 Descending Jacksonville Center
06:07PM 32.7678 -80.5975 219° Southwest 369 425 15,400 -2,040 Descending Jacksonville Center
06:08PM 32.6919 -80.6711 219° Southwest 369 425 13,500 -1,920 Descending Jacksonville Center
06:09PM 32.6158 -80.7444 220° Southwest 359 413 11,600 -1,800 Descending Jacksonville Center
06:10PM 32.5483 -80.8125 219° Southwest 339 390 9,900 -1,620 Descending Jacksonville Center
06:11PM 32.4886 -80.8706 219° Southwest 319 367 8,400 -1,560 Descending Jacksonville Center
06:12PM 32.4208 -80.9361 219° Southwest 301 346 6,800 -1,560 Descending Jacksonville Center
06:13PM 32.3611 -80.9939 219° Southwest 291 335 5,300 -1,440 Descending Jacksonville Center
06:14PM 32.3056 -81.0467 216° Southwest 265 305 4,000 -900 Descending Jacksonville Center
06:15PM 32.2622 -81.0844 239° Southwest 239 275 3,600 -660 Descending Jacksonville Center
06:16PM 32.2297 -81.1489 232° Southwest 221 254 2,700 -960 Descending Jacksonville Center
06:17PM 32.1989 -81.1961 192° South 195 224 1,700 -900 Descending Jacksonville Center
06:18PM 32.1678 -81.2042 193° South 137 158 900 -720 Descending Jacksonville Center
06:19PM 32.1386 -81.2119 193° South 118 136 300 -600 Descending Jacksonville Center